VIP1825 KNBG-KHSV
Flight info
| Callsign | VIP1825 |
|---|---|
| Flight time | N/A |
| Altitude | 40000 |
| Route | DCT HRV Q105 REDFN Q100 REMIS Y280 CHRGE DCT CYY DCT |
| Aircraft | F16/M-SDGHITUY/LB1 |
Departure
| Time | 2026-04-23 01:11 |
|---|---|
| Airport | New Orleans NAS JRB/Alvin Callender Field (KNBG) |
Arrival
| Time | N/A |
|---|---|
| Airport | Huntsville International Airport (KHSV) |
| Time | Latitude | Longitude | Altitude | Speed | Heading |
|---|---|---|---|---|---|
| 2026-04-23 01:08 | 29.82563 | -90.02956 | 6 ft | 0 kts | 314° |
| 2026-04-23 01:09 | 29.82577 | -90.02970 | 6 ft | 9 kts | 314° |
| 2026-04-23 01:09 | 29.82576 | -90.03039 | 5 ft | 9 kts | 250° |
| 2026-04-23 01:09 | 29.82607 | -90.03114 | 3 ft | 13 kts | 313° |
| 2026-04-23 01:10 | 29.82675 | -90.03194 | 3 ft | 16 kts | 316° |
| 2026-04-23 01:10 | 29.82746 | -90.03258 | 2 ft | 12 kts | 355° |
| 2026-04-23 01:10 | 29.82848 | -90.03171 | 2 ft | 56 kts | 45° |
| 2026-04-23 01:10 | 29.83392 | -90.02558 | 6 ft | 158 kts | 46° |
| 2026-04-23 01:11 | 29.84358 | -90.01427 | 302 ft | 236 kts | 49° |
| 2026-04-23 01:11 | 29.85529 | -90.00045 | 1279 ft | 244 kts | 49° |
| 2026-04-23 01:11 | 29.86712 | -89.98639 | 2458 ft | 242 kts | 50° |
| 2026-04-23 01:11 | 29.87862 | -89.97275 | 3752 ft | 231 kts | 49° |
| 2026-04-23 01:12 | 29.89016 | -89.95872 | 4320 ft | 262 kts | 71° |
| 2026-04-23 01:12 | 29.89039 | -89.93639 | 3818 ft | 306 kts | 107° |
| 2026-04-23 01:12 | 29.88418 | -89.91213 | 4353 ft | 337 kts | 109° |
| 2026-04-23 01:12 | 29.87538 | -89.88197 | 4928 ft | 453 kts | 111° |
| 2026-04-23 01:13 | 29.86356 | -89.84371 | 6342 ft | 570 kts | 111° |
| 2026-04-23 01:13 | 29.84897 | -89.79707 | 7789 ft | 632 kts | 110° |
| 2026-04-23 01:13 | 29.83412 | -89.74962 | 9377 ft | 627 kts | 110° |
| 2026-04-23 01:13 | 29.81940 | -89.70255 | 10970 ft | 622 kts | 110° |
| 2026-04-23 01:14 | 29.80457 | -89.65509 | 11396 ft | 642 kts | 110° |
| 2026-04-23 01:14 | 29.78907 | -89.60551 | 10771 ft | 673 kts | 110° |
| 2026-04-23 01:14 | 29.77294 | -89.55395 | 10630 ft | 685 kts | 110° |
| 2026-04-23 01:14 | 29.75702 | -89.50273 | 11782 ft | 676 kts | 109° |
| 2026-04-23 01:15 | 29.74144 | -89.45228 | 13268 ft | 664 kts | 109° |
| 2026-04-23 01:15 | 29.72612 | -89.40255 | 14725 ft | 656 kts | 109° |
| 2026-04-23 01:15 | 29.71102 | -89.35340 | 16149 ft | 650 kts | 109° |
| 2026-04-23 01:15 | 29.69597 | -89.30449 | 17508 ft | 649 kts | 109° |
| 2026-04-23 01:16 | 29.68072 | -89.25526 | 18308 ft | 657 kts | 109° |
| 2026-04-23 01:16 | 29.66531 | -89.20538 | 18615 ft | 669 kts | 109° |
| 2026-04-23 01:16 | 29.64973 | -89.15451 | 18985 ft | 675 kts | 109° |
| 2026-04-23 01:16 | 29.63405 | -89.10317 | 19070 ft | 687 kts | 109° |
| 2026-04-23 01:17 | 29.61810 | -89.05092 | 18845 ft | 700 kts | 109° |
| 2026-04-23 01:17 | 29.60184 | -88.99764 | 18605 ft | 710 kts | 109° |
| 2026-04-23 01:17 | 29.58529 | -88.94332 | 18319 ft | 753 kts | 109° |
| 2026-04-23 01:17 | 29.56706 | -88.88342 | 18010 ft | 835 kts | 109° |
| 2026-04-23 01:18 | 29.54710 | -88.81778 | 17592 ft | 903 kts | 109° |
| 2026-04-23 01:18 | 29.52593 | -88.74813 | 17016 ft | 935 kts | 109° |
| 2026-04-23 01:18 | 29.50389 | -88.67559 | 16337 ft | 994 kts | 109° |
| 2026-04-23 01:18 | 29.48173 | -88.60270 | 15659 ft | 948 kts | 109° |
| 2026-04-23 01:19 | 29.45935 | -88.52908 | 15344 ft | 1006 kts | 109° |
| 2026-04-23 01:19 | 29.43571 | -88.45133 | 15032 ft | 1047 kts | 109° |
| 2026-04-23 01:19 | 29.41229 | -88.37390 | 14593 ft | 1040 kts | 109° |
| 2026-04-23 01:19 | 29.38902 | -88.29582 | 14074 ft | 1039 kts | 109° |
| 2026-04-23 01:20 | 29.36615 | -88.21816 | 13446 ft | 1005 kts | 108° |
| 2026-04-23 01:20 | 29.34463 | -88.14474 | 12864 ft | 967 kts | 108° |
| 2026-04-23 01:20 | 29.32374 | -88.07347 | 12215 ft | 953 kts | 108° |
| 2026-04-23 01:20 | 29.30293 | -88.00216 | 11671 ft | 913 kts | 108° |
| 2026-04-23 01:21 | 29.28293 | -87.93360 | 11286 ft | 918 kts | 108° |
| 2026-04-23 01:21 | 29.26331 | -87.86618 | 11246 ft | 900 kts | 108° |
| 2026-04-23 01:21 | 29.24390 | -87.79956 | 10773 ft | 900 kts | 108° |
| 2026-04-23 01:21 | 29.22433 | -87.73252 | 10813 ft | 855 kts | 108° |
| 2026-04-23 01:22 | 29.20365 | -87.67049 | 10520 ft | 814 kts | 117° |
| 2026-04-23 01:22 | 29.17745 | -87.61456 | 10742 ft | 806 kts | 118° |
| 2026-04-23 01:22 | 29.15102 | -87.56005 | 11067 ft | 763 kts | 119° |
| 2026-04-23 01:22 | 29.12562 | -87.50797 | 11064 ft | 741 kts | 119° |
| 2026-04-23 01:23 | 29.10066 | -87.45685 | 10994 ft | 764 kts | 119° |
| 2026-04-23 01:23 | 29.07438 | -87.40301 | 10890 ft | 766 kts | 119° |
| 2026-04-23 01:23 | 29.04884 | -87.35070 | 10822 ft | 743 kts | 119° |
| 2026-04-23 01:23 | 29.02388 | -87.29961 | 10831 ft | 730 kts | 119° |
| 2026-04-23 01:24 | 28.99925 | -87.24921 | 10791 ft | 722 kts | 119° |
| 2026-04-23 01:24 | 28.97334 | -87.19621 | 10891 ft | 812 kts | 119° |
| 2026-04-23 01:24 | 28.94214 | -87.13887 | 11024 ft | 888 kts | 128° |
| 2026-04-23 01:24 | 28.90381 | -87.08335 | 10974 ft | 914 kts | 128° |
| 2026-04-23 01:25 | 28.86299 | -87.02427 | 10845 ft | 974 kts | 128° |
| 2026-04-23 01:25 | 28.82021 | -86.96234 | 10774 ft | 1016 kts | 128° |
| 2026-04-23 01:25 | 28.77580 | -86.89804 | 10352 ft | 1044 kts | 128° |
| 2026-04-23 01:25 | 28.73059 | -86.83253 | 9869 ft | 1057 kts | 128° |
| 2026-04-23 01:26 | 28.68570 | -86.76738 | 9295 ft | 1048 kts | 127° |
| 2026-04-23 01:26 | 28.64382 | -86.70474 | 8686 ft | 943 kts | 126° |
| 2026-04-23 01:26 | 28.60708 | -86.64732 | 8193 ft | 857 kts | 125° |
| 2026-04-23 01:26 | 28.57260 | -86.59263 | 7933 ft | 876 kts | 125° |
| 2026-04-23 01:27 | 28.53591 | -86.53480 | 7691 ft | 900 kts | 126° |
| 2026-04-23 01:27 | 28.50106 | -86.47992 | 7398 ft | 819 kts | 125° |
| 2026-04-23 01:27 | 28.46786 | -86.42748 | 7082 ft | 847 kts | 125° |
| 2026-04-23 01:27 | 28.43219 | -86.37103 | 6728 ft | 905 kts | 125° |
| 2026-04-23 01:28 | 28.39488 | -86.31203 | 6852 ft | 922 kts | 126° |
| 2026-04-23 01:28 | 28.35749 | -86.25344 | 8343 ft | 924 kts | 126° |
| 2026-04-23 01:28 | 28.31971 | -86.19441 | 9516 ft | 898 kts | 126° |
| 2026-04-23 01:28 | 28.28204 | -86.13568 | 10450 ft | 940 kts | 126° |
| 2026-04-23 01:29 | 28.24255 | -86.07405 | 10580 ft | 990 kts | 126° |
| 2026-04-23 01:29 | 28.20206 | -86.00897 | 10615 ft | 1017 kts | 123° |
| 2026-04-23 01:29 | 28.16709 | -85.94029 | 10694 ft | 1015 kts | 117° |
| 2026-04-23 01:29 | 28.13418 | -85.86899 | 10731 ft | 1020 kts | 117° |
| 2026-04-23 01:30 | 28.10175 | -85.79821 | 10800 ft | 991 kts | 117° |
| 2026-04-23 01:30 | 28.07085 | -85.73088 | 10611 ft | 919 kts | 117° |
| 2026-04-23 01:30 | 28.04265 | -85.66941 | 10329 ft | 862 kts | 117° |
| 2026-04-23 01:30 | 28.01606 | -85.61147 | 10049 ft | 798 kts | 117° |
| 2026-04-23 01:31 | 27.98893 | -85.55236 | 9677 ft | 892 kts | 117° |
| 2026-04-23 01:31 | 27.95929 | -85.48777 | 9270 ft | 948 kts | 117° |
| 2026-04-23 01:31 | 27.92861 | -85.42039 | 10118 ft | 984 kts | 117° |
| 2026-04-23 01:31 | 27.89736 | -85.35155 | 10219 ft | 992 kts | 117° |
| 2026-04-23 01:32 | 27.86555 | -85.28077 | 10480 ft | 1023 kts | 117° |
| 2026-04-23 01:32 | 27.83329 | -85.20844 | 10604 ft | 1042 kts | 117° |
| 2026-04-23 01:32 | 27.80047 | -85.13462 | 10470 ft | 1056 kts | 117° |
| 2026-04-23 01:32 | 27.76788 | -85.06135 | 10414 ft | 1047 kts | 117° |
| 2026-04-23 01:33 | 27.73563 | -84.98889 | 10246 ft | 1034 kts | 117° |
| 2026-04-23 01:33 | 27.70330 | -84.91586 | 10569 ft | 1046 kts | 116° |
| 2026-04-23 01:33 | 27.67088 | -84.84250 | 10823 ft | 1014 kts | 116° |
| 2026-04-23 01:33 | 27.64044 | -84.77362 | 10945 ft | 978 kts | 116° |
| 2026-04-23 01:34 | 27.60993 | -84.70457 | 11091 ft | 1006 kts | 116° |
| 2026-04-23 01:34 | 27.57814 | -84.63267 | 11127 ft | 1041 kts | 116° |
| 2026-04-23 01:34 | 27.54549 | -84.55883 | 11114 ft | 1061 kts | 116° |
| 2026-04-23 01:34 | 27.51276 | -84.48429 | 11100 ft | 1064 kts | 116° |
| 2026-04-23 01:35 | 27.47986 | -84.40913 | 11330 ft | 1074 kts | 116° |
| 2026-04-23 01:35 | 27.44787 | -84.33599 | 11599 ft | 981 kts | 116° |
| 2026-04-23 01:35 | 27.41946 | -84.27098 | 11730 ft | 874 kts | 116° |
| 2026-04-23 01:35 | 27.39382 | -84.21227 | 11792 ft | 800 kts | 116° |
| 2026-04-23 01:36 | 27.36944 | -84.15636 | 11808 ft | 819 kts | 116° |
| 2026-04-23 01:36 | 27.34290 | -84.09553 | 11819 ft | 901 kts | 116° |
| 2026-04-23 01:36 | 27.31503 | -84.03148 | 11766 ft | 941 kts | 116° |
| 2026-04-23 01:36 | 27.28648 | -83.96586 | 11526 ft | 892 kts | 116° |
| 2026-04-23 01:37 | 27.26053 | -83.90618 | 11356 ft | 812 kts | 116° |
| 2026-04-23 01:37 | 27.23630 | -83.85037 | 11334 ft | 798 kts | 116° |
| 2026-04-23 01:37 | 27.21293 | -83.79643 | 11975 ft | 746 kts | 116° |
| 2026-04-23 01:37 | 27.18819 | -83.73997 | 12094 ft | 859 kts | 117° |
| 2026-04-23 01:38 | 27.15821 | -83.67783 | 11612 ft | 944 kts | 119° |
| 2026-04-23 01:38 | 27.12673 | -83.61356 | 11200 ft | 961 kts | 119° |
| 2026-04-23 01:38 | 27.09357 | -83.54640 | 10870 ft | 1006 kts | 120° |
| 2026-04-23 01:38 | 27.05734 | -83.47784 | 10513 ft | 999 kts | 121° |
| 2026-04-23 01:39 | 27.02446 | -83.41490 | 10591 ft | 878 kts | 121° |
| 2026-04-23 01:39 | 26.99476 | -83.35794 | 10523 ft | 823 kts | 121° |
| 2026-04-23 01:39 | 26.96702 | -83.30473 | 10423 ft | 763 kts | 121° |
| 2026-04-23 01:39 | 26.93838 | -83.24980 | 10336 ft | 873 kts | 121° |
| 2026-04-23 01:40 | 26.90617 | -83.18812 | 10414 ft | 956 kts | 121° |
| 2026-04-23 01:40 | 26.87158 | -83.12192 | 10565 ft | 1012 kts | 121° |
| 2026-04-23 01:40 | 26.83538 | -83.05270 | 10632 ft | 1045 kts | 121° |
| 2026-04-23 01:40 | 26.79896 | -82.98309 | 10642 ft | 1033 kts | 121° |
| 2026-04-23 01:41 | 26.76488 | -82.91785 | 10621 ft | 981 kts | 120° |
| 2026-04-23 01:41 | 26.73184 | -82.85295 | 10549 ft | 890 kts | 120° |
| 2026-04-23 01:41 | 26.70077 | -82.79327 | 10094 ft | 865 kts | 121° |
| 2026-04-23 01:41 | 26.67090 | -82.73605 | 9916 ft | 811 kts | 121° |
| 2026-04-23 01:42 | 26.64360 | -82.68367 | 9755 ft | 754 kts | 120° |
| 2026-04-23 01:42 | 26.61770 | -82.63399 | 9778 ft | 726 kts | 121° |
| 2026-04-23 01:42 | 26.59252 | -82.58658 | 10060 ft | 739 kts | 122° |
| 2026-04-23 01:42 | 26.56181 | -82.53353 | 9710 ft | 876 kts | 124° |
| 2026-04-23 01:43 | 26.52594 | -82.47598 | 9318 ft | 872 kts | 126° |
| 2026-04-23 01:43 | 26.49201 | -82.42427 | 8916 ft | 785 kts | 127° |
| 2026-04-23 01:43 | 26.45964 | -82.37769 | 8728 ft | 738 kts | 129° |
| 2026-04-23 01:43 | 26.42753 | -82.33426 | 8867 ft | 716 kts | 130° |
| 2026-04-23 01:44 | 26.39503 | -82.29278 | 9265 ft | 703 kts | 132° |
| 2026-04-23 01:44 | 26.36282 | -82.25239 | 10054 ft | 694 kts | 132° |
| 2026-04-23 01:44 | 26.33076 | -82.21223 | 10746 ft | 692 kts | 132° |
| 2026-04-23 01:44 | 26.29781 | -82.16997 | 11383 ft | 789 kts | 131° |
| 2026-04-23 01:45 | 26.25941 | -82.12009 | 11811 ft | 899 kts | 131° |
| 2026-04-23 01:45 | 26.21715 | -82.06455 | 12014 ft | 983 kts | 130° |
| 2026-04-23 01:45 | 26.17315 | -82.00621 | 12162 ft | 957 kts | 130° |
| 2026-04-23 01:45 | 26.12947 | -81.94717 | 12314 ft | 1018 kts | 129° |
| 2026-04-23 01:46 | 26.08407 | -81.88400 | 12793 ft | 1065 kts | 127° |
| 2026-04-23 01:46 | 26.04166 | -81.81649 | 13644 ft | 1027 kts | 124° |
| 2026-04-23 01:46 | 26.00395 | -81.75447 | 13430 ft | 955 kts | 124° |
| 2026-04-23 01:46 | 25.96649 | -81.69264 | 13325 ft | 983 kts | 124° |
| 2026-04-23 01:47 | 25.92747 | -81.62772 | 12772 ft | 1047 kts | 124° |
| 2026-04-23 01:47 | 25.88604 | -81.55872 | 12119 ft | 1091 kts | 123° |
| 2026-04-23 01:47 | 25.84362 | -81.48808 | 11348 ft | 1106 kts | 123° |
| 2026-04-23 01:47 | 25.80314 | -81.42065 | 10511 ft | 1013 kts | 123° |
| 2026-04-23 01:48 | 25.76341 | -81.35424 | 10152 ft | 1050 kts | 123° |
| 2026-04-23 01:48 | 25.73655 | -81.30930 | 10265 ft | 1058 kts | 123° |
| 2026-04-23 01:48 | 25.69611 | -81.24125 | 10920 ft | 1052 kts | 124° |
| 2026-04-23 01:48 | 25.65780 | -81.17618 | 11283 ft | 1007 kts | 123° |
| 2026-04-23 01:49 | 25.61925 | -81.11065 | 11269 ft | 1037 kts | 123° |
| 2026-04-23 01:49 | 25.58069 | -81.04502 | 11100 ft | 972 kts | 123° |
| 2026-04-23 01:49 | 25.54530 | -80.98112 | 10879 ft | 924 kts | 119° |
| 2026-04-23 01:49 | 25.51789 | -80.92576 | 10638 ft | 749 kts | 119° |